Time;durP1;ratioP1;P1;durP2;ratioP2;P2;SDS_P1;SDS_P2;PMS_P1;PMS_P2;Temp;Humidity;BMP_temperature;BMP_pressure;BME280_temperature;BME280_humidity;BME280_pressure;Samples;Min_cycle;Max_cycle;Signal;HPM_P1;HPM_P2
2022/01/22 00:01:15;;;;;;;13.95;4.63;;;29.70;72.00;;;;;;5066985;28;20107;-53
2022/01/22 00:03:42;;;;;;;12.45;4.78;;;29.60;71.90;;;;;;5084666;28;20021;-52
2022/01/22 00:06:10;;;;;;;18.13;5.63;;;29.60;71.80;;;;;;5084844;28;20027;-52
2022/01/22 00:08:37;;;;;;;11.40;5.13;;;29.60;71.90;;;;;;5084704;28;20020;-53
2022/01/22 00:11:03;;;;;;;11.02;5.60;;;29.60;71.90;;;;;;5084492;28;20354;-54
2022/01/22 00:16:16;;;;;;;11.82;4.53;;;29.60;71.80;;;;;;5084827;28;20058;-59
2022/01/22 00:18:48;;;;;;;12.13;4.97;;;29.60;71.80;;;;;;5066924;28;20048;-52
2022/01/22 00:21:14;;;;;;;15.32;4.55;;;29.60;71.70;;;;;;5084414;28;20108;-54
2022/01/22 00:23:54;;;;;;;19.33;4.75;;;29.60;71.60;;;;;;5084996;28;20020;-53
2022/01/22 00:26:22;;;;;;;9.13;3.78;;;29.50;71.60;;;;;;5084628;28;20087;-56
2022/01/22 00:28:49;;;;;;;9.43;3.92;;;29.50;71.60;;;;;;5083649;28;20020;-52
2022/01/22 00:31:19;;;;;;;10.77;4.30;;;29.60;71.60;;;;;;5084803;28;20309;-54
2022/01/22 00:33:47;;;;;;;14.95;3.90;;;29.50;71.50;;;;;;5083333;28;20078;-54
2022/01/22 00:36:14;;;;;;;25.00;4.25;;;29.50;71.50;;;;;;5083466;28;20032;-53
2022/01/22 00:38:41;;;;;;;16.88;5.13;;;29.50;71.40;;;;;;5083091;28;20028;-57
2022/01/22 00:41:07;;;;;;;14.55;4.85;;;29.50;71.30;;;;;;5083661;28;20123;-58
2022/01/22 00:43:37;;;;;;;11.98;4.63;;;29.50;71.20;;;;;;5082434;28;20085;-54
2022/01/22 00:46:05;;;;;;;8.20;4.05;;;29.50;71.00;;;;;;5083973;28;20024;-57
2022/01/22 00:48:34;;;;;;;12.10;4.75;;;29.40;70.80;;;;;;5084076;28;20043;-52
2022/01/22 00:51:01;;;;;;;11.20;4.40;;;29.40;70.90;;;;;;5088281;28;20039;-60
2022/01/22 00:53:28;;;;;;;14.65;4.45;;;29.40;70.90;;;;;;5088185;28;20027;-56
2022/01/22 00:55:55;;;;;;;9.60;4.45;;;29.40;70.70;;;;;;5088028;28;20028;-57
2022/01/22 00:58:22;;;;;;;11.80;4.65;;;29.40;70.70;;;;;;5087851;28;20130;-57
2022/01/22 01:00:49;;;;;;;14.25;4.78;;;29.40;71.20;;;;;;5084529;28;20033;-59
2022/01/22 01:03:19;;;;;;;12.50;3.72;;;29.40;70.70;;;;;;5083913;28;20092;-56
2022/01/22 01:05:45;;;;;;;17.15;4.88;;;29.40;70.70;;;;;;5086978;28;20193;-52
2022/01/22 01:08:12;;;;;;;12.35;4.63;;;29.40;71.20;;;;;;5087123;28;20016;-53
2022/01/22 01:10:40;;;;;;;16.70;4.95;;;29.30;70.60;;;;;;5088032;28;20024;-53
2022/01/22 01:13:12;;;;;;;22.05;5.35;;;29.30;70.60;;;;;;5087101;28;20024;-53
2022/01/22 01:16:14;;;;;;;8.07;4.10;;;29.40;70.60;;;;;;5070231;28;20198;-53
2022/01/22 01:32:20;;;;;;;32.15;18.65;;;29.20;70.40;;;;;;5087733;28;20078;-57
2022/01/22 01:34:51;;;;;;;16.80;6.60;;;29.30;70.60;;;;;;5087233;28;20020;-53
2022/01/22 01:37:20;;;;;;;11.68;4.40;;;29.20;70.50;;;;;;5069878;28;20062;-56
2022/01/22 01:40:17;;;;;;;10.68;5.13;;;29.20;70.50;;;;;;5087380;28;20085;-55
2022/01/22 01:42:52;;;;;;;7.85;4.22;;;29.30;70.40;;;;;;5065373;28;20041;-54
2022/01/22 01:45:18;;;;;;;9.75;4.60;;;29.20;70.40;;;;;;5065610;28;20063;-53
2022/01/22 01:47:52;;;;;;;9.15;4.20;;;29.20;70.40;;;;;;5065452;28;20064;-55
2022/01/22 01:50:19;;;;;;;9.65;3.85;;;29.20;70.40;;;;;;5048538;28;20282;-53
2022/01/22 01:53:05;;;;;;;12.45;4.25;;;29.20;70.40;;;;;;5065628;28;20025;-53
2022/01/22 01:55:46;;;;;;;6.68;3.30;;;29.20;70.30;;;;;;5051039;28;20025;-55
2022/01/22 01:58:15;;;;;;;9.75;3.78;;;29.20;70.20;;;;;;5065328;28;20021;-58
2022/01/22 02:00:43;;;;;;;8.35;3.35;;;29.10;70.20;;;;;;5063429;28;20096;-54
2022/01/22 02:03:13;;;;;;;8.00;3.50;;;29.10;70.10;;;;;;5064557;28;20340;-56
2022/01/22 02:05:41;;;;;;;13.45;3.85;;;29.10;70.10;;;;;;5048507;28;20052;-56
2022/01/22 02:08:09;;;;;;;12.48;3.60;;;29.10;70.00;;;;;;5048410;28;20043;-56
2022/01/22 02:10:44;;;;;;;8.10;3.20;;;29.10;70.00;;;;;;5064995;28;20055;-53
2022/01/22 02:24:18;;;;;;;7.30;3.50;;;29.10;70.30;;;;;;5086524;28;20015;-53
2022/01/22 02:26:49;;;;;;;13.10;4.25;;;29.10;70.40;;;;;;5086348;28;20024;-54
2022/01/22 02:29:16;;;;;;;9.05;3.95;;;29.00;70.40;;;;;;5086038;28;20013;-53
2022/01/22 02:32:00;;;;;;;10.85;3.58;;;29.00;70.40;;;;;;5086908;28;20052;-50
2022/01/22 02:34:43;;;;;;;8.65;4.10;;;29.10;70.50;;;;;;5088516;28;20058;-53
2022/01/22 02:37:15;;;;;;;11.02;3.58;;;29.00;70.50;;;;;;5086953;28;20182;-55
2022/01/22 02:39:58;;;;;;;;;;;29.00;70.50;;;;;;5085473;28;20051;-53
2022/01/22 02:42:32;;;;;;;9.73;3.97;;;29.00;70.60;;;;;;5086912;28;19912;-51
2022/01/22 02:44:58;;;;;;;8.88;3.65;;;29.00;70.70;;;;;;5086176;28;20031;-57
2022/01/22 02:47:25;;;;;;;18.85;4.78;;;29.00;70.80;;;;;;5087314;28;20085;-50
2022/01/22 02:49:52;;;;;;;14.93;4.07;;;29.00;70.70;;;;;;5086012;28;20251;-56
2022/01/22 02:52:19;;;;;;;13.20;4.38;;;29.00;70.70;;;;;;5086042;28;20029;-54
2022/01/22 02:54:47;;;;;;;18.08;4.22;;;28.90;70.70;;;;;;5085842;28;20368;-53
2022/01/22 02:57:16;;;;;;;15.73;3.83;;;28.90;70.80;;;;;;5086114;28;20271;-50
2022/01/22 02:59:43;;;;;;;13.50;3.70;;;28.90;70.80;;;;;;5085936;28;20031;-57
2022/01/22 03:02:14;;;;;;;11.88;3.80;;;28.90;70.80;;;;;;5086107;28;20050;-51
2022/01/22 03:04:42;;;;;;;8.65;3.63;;;28.90;70.90;;;;;;5085609;28;20019;-53
2022/01/22 03:07:09;;;;;;;11.27;3.65;;;28.90;70.90;;;;;;5085247;28;20296;-51
2022/01/22 03:09:44;;;;;;;13.25;3.90;;;28.90;70.90;;;;;;5085868;28;20044;-41
2022/01/22 03:12:45;;;;;;;10.20;3.90;;;28.90;71.00;;;;;;5079562;28;20024;-52
2022/01/22 03:17:58;;;;;;;13.75;4.05;;;28.80;71.20;;;;;;5076798;28;19914;-52
2022/01/22 03:27:19;;;;;;;9.95;3.55;;;28.80;71.20;;;;;;5065957;28;20020;-55
2022/01/22 03:29:04;;;;;;;10.93;3.50;;;28.80;71.30;;;;;;5068149;28;20082;-53
2022/01/22 03:31:31;;;;;;;6.57;3.40;;;28.80;71.20;;;;;;5086138;28;20086;-53
2022/01/22 03:33:58;;;;;;;10.40;3.92;;;28.80;71.20;;;;;;5084653;28;20220;-53
2022/01/22 03:36:29;;;;;;;7.95;3.50;;;28.80;71.40;;;;;;5085429;28;20069;-54
2022/01/22 03:38:55;;;;;;;7.78;3.42;;;28.80;71.30;;;;;;5085267;28;20024;-53
2022/01/22 03:41:25;;;;;;;8.70;3.72;;;28.80;71.30;;;;;;5085388;28;20036;-62
2022/01/22 03:43:53;;;;;;;7.57;4.05;;;28.80;71.80;;;;;;5084104;28;20209;-61
2022/01/22 03:46:20;;;;;;;8.25;3.42;;;28.80;71.30;;;;;;5085087;28;20023;-55
2022/01/22 03:48:47;;;;;;;10.10;3.90;;;28.70;71.20;;;;;;5085356;28;20017;-52
2022/01/22 03:51:14;;;;;;;9.77;3.60;;;28.70;71.20;;;;;;5084721;28;20220;-55
2022/01/22 03:53:41;;;;;;;8.27;3.33;;;28.70;71.20;;;;;;5083875;28;20083;-53
2022/01/22 03:56:09;;;;;;;7.00;3.58;;;28.70;70.90;;;;;;5084786;28;20032;-53
2022/01/22 03:58:41;;;;;;;10.48;3.58;;;28.70;70.90;;;;;;5084799;28;20256;-55
2022/01/22 04:03:59;;;;;;;5.78;3.13;;;28.70;70.90;;;;;;5084602;28;20058;-53
2022/01/22 04:09:08;;;;;;;7.45;3.47;;;28.60;70.60;;;;;;5084506;28;20009;-54
2022/01/22 04:11:39;;;;;;;5.57;3.17;;;28.60;70.50;;;;;;5084668;28;20020;-53
2022/01/22 04:14:13;;;;;;;8.18;3.50;;;28.60;70.50;;;;;;5084240;28;20084;-55
2022/01/22 04:16:47;;;;;;;4.95;3.05;;;28.60;70.50;;;;;;5084683;28;20024;-54
2022/01/22 04:24:54;;;;;;;5.97;3.35;;;28.50;70.30;;;;;;5083457;28;20019;-54
2022/01/22 04:27:24;;;;;;;7.18;3.20;;;28.50;70.20;;;;;;5084843;28;20021;-54
2022/01/22 04:29:59;;;;;;;7.22;3.33;;;28.50;70.80;;;;;;5084299;28;20024;-53
2022/01/22 04:32:31;;;;;;;8.88;3.40;;;28.50;70.20;;;;;;5084392;28;20028;-54
2022/01/22 04:34:58;;;;;;;5.00;3.35;;;28.50;70.20;;;;;;5084020;28;20016;-53
2022/01/22 04:37:25;;;;;;;9.00;3.42;;;28.50;70.20;;;;;;5084358;28;20028;-54
2022/01/22 04:39:52;;;;;;;10.48;3.35;;;28.40;70.10;;;;;;5083931;28;20017;-53
2022/01/22 04:42:20;;;;;;;8.35;3.20;;;28.40;70.00;;;;;;5084252;28;20024;-53
2022/01/22 04:45:03;;;;;;;5.65;3.00;;;28.40;70.00;;;;;;5083880;28;20058;-54
2022/01/22 04:55:35;;;;;;;9.48;3.20;;;28.40;69.90;;;;;;5083835;28;20012;-54
2022/01/22 04:58:03;;;;;;;5.38;2.88;;;28.30;69.80;;;;;;5083917;28;20016;-54
2022/01/22 05:00:32;;;;;;;4.63;2.80;;;28.30;69.60;;;;;;5083493;28;20020;-52
2022/01/22 05:02:59;;;;;;;6.65;2.80;;;28.40;69.60;;;;;;5083758;28;20061;-54
2022/01/22 05:05:26;;;;;;;5.53;2.70;;;28.40;69.70;;;;;;5083784;28;20020;-55
2022/01/22 05:07:53;;;;;;;9.10;3.00;;;28.40;69.60;;;;;;5083531;28;20361;-54
2022/01/22 05:10:20;;;;;;;7.82;2.80;;;28.40;69.30;;;;;;5083902;28;20252;-58
2022/01/22 05:12:47;;;;;;;5.80;2.70;;;28.40;69.30;;;;;;5082494;28;20024;-54
2022/01/22 05:15:16;;;;;;;7.65;3.28;;;28.40;69.30;;;;;;5083507;28;20027;-53
2022/01/22 05:17:44;;;;;;;5.55;2.80;;;28.40;69.20;;;;;;5084250;28;20331;-53
2022/01/22 05:20:21;;;;;;;5.25;2.90;;;28.40;69.20;;;;;;5083381;28;20438;-54
2022/01/22 05:22:56;;;;;;;7.88;2.72;;;28.40;69.20;;;;;;5083755;28;20339;-54
2022/01/22 05:25:30;;;;;;;4.80;2.85;;;28.40;69.10;;;;;;5083730;28;20012;-59
2022/01/22 05:28:11;;;;;;;8.27;2.90;;;28.30;69.10;;;;;;5083337;28;20055;-53
2022/01/22 05:38:33;;;;;;;6.40;3.30;;;28.30;68.80;;;;;;5087282;28;20050;-52
2022/01/22 05:41:00;;;;;;;6.88;3.00;;;28.20;68.80;;;;;;5087063;28;20032;-52
2022/01/22 05:43:27;;;;;;;4.95;2.60;;;28.30;68.90;;;;;;5087180;28;20027;-53
2022/01/22 05:45:53;;;;;;;8.20;2.80;;;28.20;68.80;;;;;;5087177;28;20021;-53
2022/01/22 05:48:20;;;;;;;4.25;2.50;;;28.20;68.80;;;;;;5087060;28;20019;-53
2022/01/22 05:50:51;;;;;;;7.00;2.88;;;28.20;68.80;;;;;;5087066;28;20036;-53
2022/01/22 06:01:22;;;;;;;6.30;3.00;;;28.10;68.60;;;;;;5087237;28;20047;-54
2022/01/22 06:03:49;;;;;;;5.50;2.97;;;28.20;68.70;;;;;;5086512;28;20016;-54
2022/01/22 06:06:16;;;;;;;6.47;3.15;;;28.20;68.60;;;;;;5086703;28;20260;-53
2022/01/22 06:08:49;;;;;;;11.18;3.03;;;28.20;68.70;;;;;;5086523;28;20017;-54
2022/01/22 06:11:22;;;;;;;5.68;2.92;;;28.10;68.50;;;;;;5086645;28;20036;-56
2022/01/22 06:13:49;;;;;;;4.80;3.03;;;28.10;68.50;;;;;;5086530;28;20331;-53
2022/01/22 06:16:25;;;;;;;4.40;2.55;;;28.10;68.50;;;;;;5086438;28;20292;-52
2022/01/22 06:18:53;;;;;;;6.07;2.75;;;28.10;68.40;;;;;;5086935;28;20024;-54
2022/01/22 06:21:19;;;;;;;5.22;2.50;;;28.10;68.30;;;;;;5086533;28;20051;-54
2022/01/22 06:23:46;;;;;;;7.18;2.90;;;28.00;68.20;;;;;;5086194;28;20016;-53
2022/01/22 06:26:14;;;;;;;6.00;2.78;;;28.10;68.20;;;;;;5086591;28;20058;-53
2022/01/22 06:28:41;;;;;;;5.03;2.50;;;28.10;68.20;;;;;;5086487;28;20063;-54
2022/01/22 06:31:08;;;;;;;6.55;2.80;;;28.00;68.10;;;;;;5086136;28;20032;-58
2022/01/22 06:33:35;;;;;;;5.18;2.92;;;28.00;67.90;;;;;;5086032;28;20027;-54
2022/01/22 06:36:02;;;;;;;4.80;2.40;;;28.00;67.90;;;;;;5086058;28;20025;-53
2022/01/22 06:38:29;;;;;;;4.47;2.72;;;28.00;68.30;;;;;;5085304;28;20198;-54
2022/01/22 06:43:40;;;;;;;4.68;2.35;;;28.00;67.70;;;;;;5085101;28;20074;-52
2022/01/22 06:46:07;;;;;;;4.55;2.50;;;27.90;68.00;;;;;;5085786;28;20024;-53
2022/01/22 06:48:34;;;;;;;5.07;2.40;;;27.90;67.50;;;;;;5085790;28;20021;-53
2022/01/22 06:51:01;;;;;;;8.43;2.80;;;27.90;67.60;;;;;;5085862;28;20256;-55
2022/01/22 06:53:28;;;;;;;6.70;2.67;;;27.90;67.40;;;;;;5085776;28;20020;-53
2022/01/22 06:56:01;;;;;;;5.80;2.90;;;27.90;67.40;;;;;;5085953;28;20239;-52
2022/01/22 06:58:28;;;;;;;4.10;2.40;;;27.90;67.40;;;;;;5085807;28;20084;-52
2022/01/22 07:00:54;;;;;;;4.65;2.55;;;27.90;67.20;;;;;;5085466;28;20293;-53
2022/01/22 07:03:22;;;;;;;5.03;2.60;;;27.90;67.20;;;;;;5085810;28;20265;-56
2022/01/22 07:05:48;;;;;;;3.90;2.40;;;27.90;67.20;;;;;;5085397;28;20027;-57
2022/01/22 07:08:15;;;;;;;3.55;2.30;;;27.90;67.40;;;;;;5085392;28;20012;-53
2022/01/22 07:10:41;;;;;;;7.72;2.53;;;27.90;67.30;;;;;;5085781;28;20021;-53
2022/01/22 07:13:08;;;;;;;7.00;3.00;;;27.90;67.20;;;;;;5085185;28;20027;-53
2022/01/22 07:15:35;;;;;;;5.60;2.25;;;27.90;67.20;;;;;;5085101;28;20194;-53
2022/01/22 07:18:03;;;;;;;4.53;2.40;;;27.80;67.10;;;;;;5085636;28;20047;-57
2022/01/22 07:20:31;;;;;;;3.85;2.53;;;27.80;67.10;;;;;;5084721;28;20054;-53
2022/01/22 07:25:25;;;;;;;3.83;2.30;;;27.80;67.10;;;;;;5084945;28;20015;-58
2022/01/22 07:27:52;;;;;;;7.55;2.28;;;27.80;67.00;;;;;;5085120;28;20021;-53
2022/01/22 07:30:19;;;;;;;6.63;2.63;;;27.70;67.10;;;;;;5084870;28;20044;-53
2022/01/22 07:32:48;;;;;;;4.32;2.22;;;27.80;67.10;;;;;;5085442;28;20020;-55
2022/01/22 07:35:18;;;;;;;4.68;2.58;;;27.70;67.10;;;;;;5085303;28;20054;-53
2022/01/22 07:37:48;;;;;;;4.40;2.55;;;27.70;67.00;;;;;;5084004;28;20033;-51
2022/01/22 07:40:15;;;;;;;3.75;2.17;;;27.70;67.10;;;;;;5085176;28;20020;-55
2022/01/22 07:42:42;;;;;;;5.40;2.42;;;27.70;67.30;;;;;;5084935;28;20024;-53
2022/01/22 07:45:09;;;;;;;5.25;2.50;;;27.70;67.40;;;;;;5084768;28;20339;-54
2022/01/22 07:47:37;;;;;;;4.25;2.60;;;27.70;67.50;;;;;;5085110;28;20032;-53
2022/01/22 07:50:05;;;;;;;5.65;2.45;;;27.70;67.50;;;;;;5084537;28;20043;-53
2022/01/22 07:52:32;;;;;;;5.97;2.40;;;27.70;67.70;;;;;;5085417;28;20080;-54
2022/01/22 07:54:58;;;;;;;8.57;2.78;;;27.70;67.90;;;;;;5084672;28;20100;-54
2022/01/22 07:57:25;;;;;;;5.53;2.75;;;27.60;67.90;;;;;;5084747;28;20024;-53
2022/01/22 07:59:52;;;;;;;7.88;2.58;;;27.60;68.00;;;;;;5083813;28;20073;-54
2022/01/22 08:02:18;;;;;;;3.70;2.45;;;27.60;68.30;;;;;;5084976;28;20027;-54
2022/01/22 08:04:45;;;;;;;9.73;3.08;;;27.60;68.40;;;;;;5084188;28;20031;-56
2022/01/22 08:07:12;;;;;;;5.47;2.38;;;27.60;68.50;;;;;;5084664;28;20089;-55
2022/01/22 08:09:38;;;;;;;7.07;2.78;;;27.60;68.70;;;;;;5084281;28;20115;-60
2022/01/22 08:12:05;;;;;;;8.45;3.03;;;27.60;68.90;;;;;;5084413;28;20080;-57
2022/01/22 08:14:32;;;;;;;6.05;2.60;;;27.50;68.90;;;;;;5084390;28;20024;-57
2022/01/22 08:16:58;;;;;;;6.80;2.90;;;27.50;69.00;;;;;;5084704;28;20033;-59
2022/01/22 08:19:25;;;;;;;6.00;2.75;;;27.50;69.30;;;;;;5084021;28;20028;-53
2022/01/22 08:21:52;;;;;;;6.32;2.53;;;27.50;69.60;;;;;;5084498;28;20247;-56
2022/01/22 08:24:22;;;;;;;7.30;3.40;;;27.50;69.50;;;;;;5084318;28;20385;-54
2022/01/22 08:27:03;;;;;;;4.65;2.53;;;27.40;69.60;;;;;;5084150;28;20036;-54
2022/01/22 08:29:29;;;;;;;5.07;2.50;;;27.40;69.80;;;;;;5084335;28;20171;-53
2022/01/22 08:37:26;;;;;;;6.35;2.88;;;27.40;70.30;;;;;;5084294;28;20070;-56
2022/01/22 08:39:53;;;;;;;7.47;2.58;;;27.30;70.50;;;;;;5083913;28;20069;-54
2022/01/22 08:42:20;;;;;;;4.70;2.88;;;27.30;70.60;;;;;;5084145;28;20030;-53
2022/01/22 08:44:47;;;;;;;5.32;2.72;;;27.30;70.70;;;;;;5083721;28;20080;-53
2022/01/22 08:47:14;;;;;;;9.30;3.05;;;27.30;70.60;;;;;;5084373;28;20032;-52
2022/01/22 08:49:41;;;;;;;9.93;3.40;;;27.30;70.30;;;;;;5083436;28;20021;-55
2022/01/22 08:52:13;;;;;;;12.43;5.50;;;27.20;70.30;;;;;;5084020;28;20031;-55
2022/01/22 08:54:41;;;;;;;20.80;9.93;;;27.20;70.30;;;;;;5083783;28;20217;-54
2022/01/22 08:57:08;;;;;;;25.42;11.70;;;27.20;70.30;;;;;;5084098;28;20036;-60
2022/01/22 08:59:35;;;;;;;26.10;12.48;;;27.20;70.30;;;;;;5083710;28;20271;-53
2022/01/22 09:02:02;;;;;;;25.23;11.02;;;27.20;70.50;;;;;;5084078;28;20028;-54
2022/01/22 09:04:30;;;;;;;22.67;9.98;;;27.20;70.70;;;;;;5083740;28;20012;-54
2022/01/22 09:06:57;;;;;;;17.95;8.77;;;27.10;70.60;;;;;;5084268;28;20161;-51
2022/01/22 09:09:25;;;;;;;17.63;8.32;;;27.10;70.80;;;;;;5083987;28;20017;-55
2022/01/22 09:11:52;;;;;;;15.20;7.72;;;27.10;70.90;;;;;;5088172;28;20351;-54
2022/01/22 09:14:19;;;;;;;18.98;8.75;;;27.10;71.00;;;;;;5087526;28;20040;-54
2022/01/22 09:16:48;;;;;;;18.58;8.27;;;27.10;71.00;;;;;;5087796;28;20035;-54
2022/01/22 09:19:15;;;;;;;18.98;7.63;;;27.10;71.10;;;;;;5087445;28;20021;-54
2022/01/22 09:21:45;;;;;;;13.93;7.63;;;27.10;71.20;;;;;;5087388;28;20082;-55
2022/01/22 09:24:15;;;;;;;15.15;7.38;;;27.00;71.20;;;;;;5087349;28;20091;-57
2022/01/22 09:26:42;;;;;;;17.40;7.43;;;27.00;71.30;;;;;;5088084;28;20021;-59
2022/01/22 09:29:09;;;;;;;14.10;7.05;;;27.00;71.50;;;;;;5087351;28;20039;-56
2022/01/22 09:31:35;;;;;;;12.75;6.82;;;27.00;71.70;;;;;;5087506;28;20025;-58
2022/01/22 09:34:03;;;;;;;12.32;6.15;;;27.00;71.80;;;;;;5087573;28;20024;-58
2022/01/22 09:36:32;;;;;;;12.40;6.00;;;27.00;72.10;;;;;;5087735;28;20036;-61
2022/01/22 09:38:59;;;;;;;11.40;5.65;;;26.90;71.90;;;;;;5087100;28;20096;-54
2022/01/22 09:41:28;;;;;;;10.65;5.57;;;26.90;71.90;;;;;;5087208;28;20024;-56
2022/01/22 09:43:55;;;;;;;12.88;4.97;;;26.90;72.20;;;;;;5087396;28;20024;-56
2022/01/22 09:46:23;;;;;;;10.18;4.35;;;26.90;72.20;;;;;;5087187;28;20043;-58
2022/01/22 09:48:51;;;;;;;7.93;3.92;;;26.90;72.20;;;;;;5086899;28;20027;-53
2022/01/22 09:51:18;;;;;;;7.70;3.58;;;26.80;72.30;;;;;;5087338;28;20091;-56
2022/01/22 09:53:46;;;;;;;10.68;4.05;;;26.80;72.30;;;;;;5086970;28;20068;-54
2022/01/22 09:56:16;;;;;;;8.73;4.13;;;26.80;72.30;;;;;;5087026;28;20017;-55
2022/01/22 09:58:43;;;;;;;10.02;3.70;;;26.80;72.30;;;;;;5087011;28;20032;-54
2022/01/22 10:01:25;;;;;;;11.10;3.53;;;26.80;72.20;;;;;;5086737;28;20087;-56
2022/01/22 10:03:54;;;;;;;7.95;3.10;;;26.80;72.20;;;;;;5087037;28;20095;-54
2022/01/22 10:06:26;;;;;;;10.85;3.22;;;26.80;72.10;;;;;;5086937;28;20169;-55
2022/01/22 10:09:13;;;;;;;6.43;3.00;;;26.80;72.10;;;;;;5086498;28;20051;-54
2022/01/22 10:11:41;;;;;;;5.35;2.90;;;26.80;72.10;;;;;;5087199;28;20032;-56
2022/01/22 10:14:09;;;;;;;8.02;3.10;;;26.80;72.10;;;;;;5086315;28;20021;-57
2022/01/22 10:16:40;;;;;;;4.75;2.70;;;26.80;72.20;;;;;;5086743;28;20024;-55
2022/01/22 10:19:18;;;;;;;4.65;2.75;;;26.70;72.30;;;;;;5086394;28;20047;-55
2022/01/22 10:21:46;;;;;;;6.72;2.60;;;26.70;72.30;;;;;;5084992;28;20060;-56
2022/01/22 10:24:27;;;;;;;9.90;3.00;;;26.70;72.50;;;;;;5086227;28;20240;-59
2022/01/22 10:29:52;;;;;;;10.27;3.03;;;26.60;72.70;;;;;;5086193;28;20016;-53
2022/01/22 10:32:25;;;;;;;4.47;2.70;;;26.70;72.80;;;;;;5086526;28;20032;-52
2022/01/22 10:35:04;;;;;;;7.10;3.15;;;26.70;73.00;;;;;;5086103;28;20035;-55
2022/01/22 10:37:30;;;;;;;8.07;3.17;;;26.70;73.10;;;;;;5086632;28;20030;-57
2022/01/22 10:40:23;;;;;;;5.65;2.72;;;26.60;73.00;;;;;;5086137;28;20020;-58
2022/01/22 10:42:51;;;;;;;6.82;2.92;;;26.70;73.20;;;;;;5085871;28;20067;-56
2022/01/22 10:45:29;;;;;;;11.88;2.95;;;26.60;73.20;;;;;;5085837;28;20035;-55
2022/01/22 10:48:23;;;;;;;12.38;2.83;;;26.60;73.30;;;;;;5085711;28;20036;-56
2022/01/22 10:51:20;;;;;;;7.90;2.75;;;26.60;73.50;;;;;;5086081;28;20323;-55
2022/01/22 10:53:59;;;;;;;8.18;3.10;;;26.60;73.60;;;;;;5077503;28;20032;-55
2022/01/22 10:56:28;;;;;;;7.40;3.28;;;26.60;73.70;;;;;;5085895;28;20024;-54
2022/01/22 10:58:57;;;;;;;21.00;3.72;;;26.60;73.70;;;;;;5085648;28;20017;-58
2022/01/22 11:01:26;;;;;;;11.05;3.28;;;26.60;73.70;;;;;;5085589;28;20032;-55
2022/01/22 11:04:13;;;;;;;12.70;3.45;;;26.60;73.70;;;;;;5085991;28;20058;-55
2022/01/22 11:06:46;;;;;;;9.60;3.13;;;26.60;73.80;;;;;;5085758;28;20277;-54
2022/01/22 11:09:13;;;;;;;8.20;3.35;;;26.60;73.80;;;;;;5085456;28;20017;-56
2022/01/22 11:11:41;;;;;;;9.23;3.35;;;26.60;73.90;;;;;;5085713;28;20032;-56
2022/01/22 11:14:11;;;;;;;7.65;2.60;;;26.60;73.90;;;;;;5085228;28;20091;-55
2022/01/22 11:16:40;;;;;;;11.38;3.80;;;26.60;73.90;;;;;;5086551;28;20347;-51
2022/01/22 11:19:32;;;;;;;7.80;2.92;;;26.60;73.90;;;;;;5088387;28;20313;-54
2022/01/22 11:22:05;;;;;;;9.40;3.20;;;26.60;73.90;;;;;;5085797;28;20044;-55
2022/01/22 11:24:36;;;;;;;10.40;3.55;;;26.60;74.60;;;;;;5085214;28;20016;-56
2022/01/22 11:27:05;;;;;;;11.68;3.33;;;26.60;74.00;;;;;;5086292;28;20088;-63
2022/01/22 11:29:47;;;;;;;9.85;3.20;;;26.60;73.90;;;;;;5085134;28;20084;-55
2022/01/22 11:32:17;;;;;;;9.30;3.30;;;26.60;73.90;;;;;;5085294;28;20039;-56
2022/01/22 11:34:47;;;;;;;10.52;3.40;;;26.60;73.90;;;;;;5084983;28;20024;-54
2022/01/22 11:37:32;;;;;;;10.55;3.53;;;26.60;73.90;;;;;;5085293;28;20058;-53
2022/01/22 11:40:21;;;;;;;14.38;3.60;;;26.60;73.90;;;;;;5084855;28;20027;-54
2022/01/22 11:43:00;;;;;;;14.07;3.38;;;26.60;73.80;;;;;;5084593;28;20033;-54
2022/01/22 11:45:41;;;;;;;9.07;3.22;;;26.60;73.80;;;;;;5084579;28;20028;-53
2022/01/22 11:48:26;;;;;;;14.82;3.35;;;26.60;73.70;;;;;;5084678;28;20209;-54
2022/01/22 11:51:17;;;;;;;10.98;3.08;;;26.60;73.70;;;;;;5084606;28;20087;-58
2022/01/22 11:53:55;;;;;;;13.68;3.10;;;26.60;73.60;;;;;;5077565;28;20051;-55
2022/01/22 11:56:26;;;;;;;12.07;3.85;;;26.60;73.50;;;;;;5084557;28;20039;-55
2022/01/22 11:58:59;;;;;;;17.00;4.55;;;26.60;73.60;;;;;;5083243;28;20218;-54
2022/01/22 12:01:39;;;;;;;12.00;4.20;;;26.60;73.70;;;;;;5083169;28;20036;-58
2022/01/22 12:04:07;;;;;;;21.35;4.22;;;26.70;74.00;;;;;;5084769;28;20055;-58
2022/01/22 12:06:34;;;;;;;15.98;3.72;;;26.70;74.00;;;;;;5083596;28;20028;-55
2022/01/22 12:09:15;;;;;;;13.50;3.70;;;26.70;74.00;;;;;;5084180;28;20024;-55
2022/01/22 12:14:54;;;;;;;19.40;3.88;;;26.70;74.10;;;;;;5084335;28;20389;-54
2022/01/22 12:17:47;;;;;;;21.10;4.93;;;26.70;74.10;;;;;;5083839;28;20063;-59
2022/01/22 12:22:58;;;;;;;25.55;4.15;;;26.80;74.30;;;;;;5084092;28;20056;-53
2022/01/22 12:25:31;;;;;;;20.48;4.65;;;26.80;74.20;;;;;;5083641;28;20016;-55
2022/01/22 12:27:58;;;;;;;;;;;26.80;74.30;;;;;;5083029;28;20019;-54
2022/01/22 12:30:44;;;;;;;23.10;4.03;;;26.80;74.80;;;;;;5083367;28;19901;-53
2022/01/22 12:33:16;;;;;;;23.05;4.10;;;26.80;75.10;;;;;;5083613;28;20023;-58
2022/01/22 12:35:58;;;;;;;14.07;3.75;;;26.80;75.00;;;;;;5084029;28;20320;-57
2022/01/22 12:38:46;;;;;;;12.98;3.83;;;26.80;75.10;;;;;;5083885;28;20048;-54
2022/01/22 12:44:00;;;;;;;22.63;4.60;;;26.70;75.70;;;;;;5082299;28;20024;-56
2022/01/22 12:46:29;;;;;;;23.88;4.22;;;26.70;75.80;;;;;;5081571;28;20021;-55
2022/01/22 12:48:56;;;;;;;22.48;4.38;;;26.70;75.80;;;;;;5082366;28;20088;-55
2022/01/22 12:51:26;;;;;;;24.20;5.07;;;26.60;75.90;;;;;;5082406;28;20028;-58
2022/01/22 12:53:53;;;;;;;19.10;4.60;;;26.70;76.00;;;;;;5082489;28;20016;-56
2022/01/22 12:59:06;;;;;;;19.25;4.20;;;26.80;76.00;;;;;;5083851;28;20013;-59
2022/01/22 13:01:34;;;;;;;17.52;3.85;;;26.70;76.00;;;;;;5081864;28;20028;-62
2022/01/22 13:04:06;;;;;;;28.10;4.47;;;26.80;76.10;;;;;;5083104;28;20021;-57
2022/01/22 13:06:38;;;;;;;9.45;3.63;;;26.80;76.10;;;;;;5084021;28;20048;-55
2022/01/22 13:09:04;;;;;;;;;;;26.80;76.00;;;;;;5084319;28;20023;-54
2022/01/22 13:11:32;;;;;;;13.23;4.50;;;26.80;75.90;;;;;;5084223;28;19940;-55
2022/01/22 13:14:00;;;;;;;10.23;3.70;;;26.80;75.80;;;;;;5083045;28;20213;-59
2022/01/22 13:16:27;;;;;;;16.33;4.07;;;26.80;75.80;;;;;;5083315;28;20036;-53
2022/01/22 13:19:00;;;;;;;13.50;4.43;;;26.90;75.80;;;;;;5083945;28;20021;-57
2022/01/22 13:21:32;;;;;;;14.52;3.92;;;26.90;75.70;;;;;;5083430;28;20048;-55
2022/01/22 13:24:11;;;;;;;14.50;3.83;;;26.90;75.40;;;;;;5083601;28;20012;-56
2022/01/22 13:26:45;;;;;;;32.47;7.20;;;27.00;75.50;;;;;;5083807;28;20174;-60
2022/01/22 13:29:30;;;;;;;13.95;4.07;;;27.00;75.40;;;;;;5083664;28;20019;-54
2022/01/22 13:32:02;;;;;;;14.15;4.53;;;27.00;75.10;;;;;;5083687;28;20047;-56
2022/01/22 13:34:39;;;;;;;16.50;4.63;;;27.10;75.10;;;;;;5083488;28;20043;-53
2022/01/22 13:37:54;;;;;;;18.00;4.47;;;27.10;75.00;;;;;;5082528;28;20044;-57
2022/01/22 13:40:23;;;;;;;18.98;4.93;;;27.10;75.00;;;;;;5083293;28;20194;-54
2022/01/22 13:48:31;;;;;;;13.45;4.22;;;27.20;74.60;;;;;;5083268;28;20017;-54
2022/01/22 13:50:59;;;;;;;12.88;4.32;;;27.20;74.60;;;;;;5083301;28;20031;-53
2022/01/22 13:53:26;;;;;;;12.73;4.18;;;27.30;74.50;;;;;;5083780;28;20021;-53
2022/01/22 13:56:08;;;;;;;12.75;4.32;;;27.20;74.40;;;;;;5083509;28;20037;-52
2022/01/22 13:58:35;;;;;;;11.90;4.65;;;27.30;74.30;;;;;;5086582;28;20032;-55
2022/01/22 14:01:31;;;;;;;12.00;4.40;;;27.30;74.00;;;;;;5086706;28;20024;-55
2022/01/22 14:04:12;;;;;;;8.60;4.20;;;27.30;74.00;;;;;;5086816;28;20012;-53
2022/01/22 14:06:41;;;;;;;14.18;4.60;;;27.40;73.60;;;;;;5086774;28;20055;-55
2022/01/22 14:09:19;;;;;;;8.15;4.40;;;27.40;73.40;;;;;;5085122;28;20025;-55
2022/01/22 14:12:15;;;;;;;12.98;4.75;;;27.40;73.40;;;;;;5086099;28;20036;-57
2022/01/22 14:15:01;;;;;;;13.35;5.10;;;27.40;73.20;;;;;;5086562;28;20021;-53
2022/01/22 14:17:37;;;;;;;9.85;4.80;;;27.50;73.00;;;;;;5086914;28;20221;-53
2022/01/22 14:20:11;;;;;;;8.63;4.72;;;27.50;73.20;;;;;;5086204;28;20052;-53
2022/01/22 14:22:59;;;;;;;7.10;4.72;;;27.50;72.90;;;;;;5086171;28;20052;-54
2022/01/22 14:25:26;;;;;;;12.30;5.00;;;27.60;72.60;;;;;;5086242;28;20058;-56
2022/01/22 14:28:01;;;;;;;8.40;4.68;;;27.50;72.50;;;;;;5086261;28;20075;-54
2022/01/22 14:30:40;;;;;;;12.60;5.00;;;27.60;72.40;;;;;;5086646;28;20016;-52
2022/01/22 14:33:08;;;;;;;13.45;5.15;;;27.60;72.40;;;;;;5080443;28;20339;-52
2022/01/22 14:35:36;;;;;;;12.73;4.95;;;27.60;72.30;;;;;;5068744;28;20021;-60
2022/01/22 14:38:22;;;;;;;8.07;4.20;;;27.70;72.30;;;;;;5066020;28;20016;-58
2022/01/22 14:47:12;;;;;;;20.92;5.22;;;27.70;72.50;;;;;;5086598;28;20024;-51
2022/01/22 14:49:54;;;;;;;12.02;4.68;;;27.70;72.50;;;;;;5085255;28;20012;-58
2022/01/22 14:52:24;;;;;;;12.73;5.20;;;27.70;72.70;;;;;;5076454;28;20032;-55